sensor_id;sensor_type;location;lat;lon;timestamp;pressure;altitude;pressure_sealevel;temperature;humidity
48404;BME280;34202;52.536;6.042;2023-12-29T00:00:23;100621.91;;;9.69;100.00
48404;BME280;34202;52.536;6.042;2023-12-29T00:05:23;100625.17;;;9.65;100.00
48404;BME280;34202;52.536;6.042;2023-12-29T00:10:24;100616.80;;;9.61;100.00
48404;BME280;34202;52.536;6.042;2023-12-29T00:15:24;100606.35;;;9.58;100.00
48404;BME280;34202;52.536;6.042;2023-12-29T00:20:24;100605.30;;;9.55;100.00
48404;BME280;34202;52.536;6.042;2023-12-29T00:25:25;100599.20;;;9.55;100.00
48404;BME280;34202;52.536;6.042;2023-12-29T00:30:25;100597.64;;;9.53;100.00
48404;BME280;34202;52.536;6.042;2023-12-29T00:35:25;100585.81;;;9.50;100.00
48404;BME280;34202;52.536;6.042;2023-12-29T00:40:26;100587.17;;;9.47;100.00
48404;BME280;34202;52.536;6.042;2023-12-29T00:45:26;100575.70;;;9.46;100.00
48404;BME280;34202;52.536;6.042;2023-12-29T00:50:32;100574.83;;;9.45;100.00
48404;BME280;34202;52.536;6.042;2023-12-29T00:55:32;100563.19;;;9.45;100.00
48404;BME280;34202;52.536;6.042;2023-12-29T01:00:32;100555.38;;;9.46;100.00
48404;BME280;34202;52.536;6.042;2023-12-29T01:05:33;100540.64;;;9.50;100.00
48404;BME280;34202;52.536;6.042;2023-12-29T01:10:33;100531.96;;;9.52;100.00
48404;BME280;34202;52.536;6.042;2023-12-29T01:15:33;100531.27;;;9.52;100.00
48404;BME280;34202;52.536;6.042;2023-12-29T01:20:34;100535.61;;;9.52;100.00
48404;BME280;34202;52.536;6.042;2023-12-29T01:25:34;100521.71;;;9.51;100.00
48404;BME280;34202;52.536;6.042;2023-12-29T01:30:34;100507.98;;;9.49;100.00
48404;BME280;34202;52.536;6.042;2023-12-29T01:35:35;100494.76;;;9.47;100.00
48404;BME280;34202;52.536;6.042;2023-12-29T01:40:45;100495.98;;;9.47;100.00
48404;BME280;34202;52.536;6.042;2023-12-29T01:45:46;100503.97;;;9.49;100.00
48404;BME280;34202;52.536;6.042;2023-12-29T01:50:46;100503.29;;;9.50;100.00
48404;BME280;34202;52.536;6.042;2023-12-29T01:55:47;100499.13;;;9.51;100.00
48404;BME280;34202;52.536;6.042;2023-12-29T02:00:48;100495.99;;;9.50;100.00
48404;BME280;34202;52.536;6.042;2023-12-29T02:05:48;100496.35;;;9.52;100.00
48404;BME280;34202;52.536;6.042;2023-12-29T02:10:50;100496.52;;;9.52;100.00
48404;BME280;34202;52.536;6.042;2023-12-29T02:15:52;100498.63;;;9.53;100.00
48404;BME280;34202;52.536;6.042;2023-12-29T02:20:54;100503.50;;;9.56;100.00
48404;BME280;34202;52.536;6.042;2023-12-29T02:25:58;100517.92;;;9.58;100.00
48404;BME280;34202;52.536;6.042;2023-12-29T02:31:07;100521.23;;;9.60;100.00
48404;BME280;34202;52.536;6.042;2023-12-29T02:36:10;100524.56;;;9.62;100.00
48404;BME280;34202;52.536;6.042;2023-12-29T02:41:12;100528.21;;;9.63;100.00
48404;BME280;34202;52.536;6.042;2023-12-29T02:46:16;100529.78;;;9.64;100.00
48404;BME280;34202;52.536;6.042;2023-12-29T02:51:17;100525.42;;;9.63;100.00
48404;BME280;34202;52.536;6.042;2023-12-29T02:56:17;100513.23;;;9.60;100.00
48404;BME280;34202;52.536;6.042;2023-12-29T03:01:17;100510.10;;;9.55;100.00
48404;BME280;34202;52.536;6.042;2023-12-29T03:06:17;100506.25;;;9.51;100.00
48404;BME280;34202;52.536;6.042;2023-12-29T03:11:18;100497.89;;;9.47;100.00
48404;BME280;34202;52.536;6.042;2023-12-29T03:16:18;100490.05;;;9.44;100.00
48404;BME280;34202;52.536;6.042;2023-12-29T03:21:19;100485.89;;;9.44;100.00
48404;BME280;34202;52.536;6.042;2023-12-29T03:26:19;100507.27;;;9.44;100.00
48404;BME280;34202;52.536;6.042;2023-12-29T03:31:19;100504.30;;;9.42;100.00
48404;BME280;34202;52.536;6.042;2023-12-29T03:36:19;100501.15;;;9.40;100.00
48404;BME280;34202;52.536;6.042;2023-12-29T03:41:20;100503.05;;;9.39;100.00
48404;BME280;34202;52.536;6.042;2023-12-29T03:46:21;100495.91;;;9.36;100.00
48404;BME280;34202;52.536;6.042;2023-12-29T03:51:21;100507.70;;;9.33;100.00
48404;BME280;34202;52.536;6.042;2023-12-29T03:56:21;100518.29;;;9.33;100.00
48404;BME280;34202;52.536;6.042;2023-12-29T04:01:22;100516.73;;;9.32;100.00
48404;BME280;34202;52.536;6.042;2023-12-29T04:06:22;100517.06;;;9.29;100.00
48404;BME280;34202;52.536;6.042;2023-12-29T04:11:22;100504.35;;;9.26;100.00
48404;BME280;34202;52.536;6.042;2023-12-29T04:16:23;100510.95;;;9.25;100.00
48404;BME280;34202;52.536;6.042;2023-12-29T04:21:23;100509.38;;;9.23;100.00
48404;BME280;34202;52.536;6.042;2023-12-29T04:26:23;100517.71;;;9.22;100.00
48404;BME280;34202;52.536;6.042;2023-12-29T04:31:24;100517.84;;;9.18;100.00
48404;BME280;34202;52.536;6.042;2023-12-29T04:36:24;100510.19;;;9.16;100.00
48404;BME280;34202;52.536;6.042;2023-12-29T04:41:24;100507.91;;;9.14;100.00
48404;BME280;34202;52.536;6.042;2023-12-29T04:46:25;100511.39;;;9.12;100.00
48404;BME280;34202;52.536;6.042;2023-12-29T04:51:25;100508.41;;;9.10;100.00
48404;BME280;34202;52.536;6.042;2023-12-29T04:56:26;100509.10;;;9.09;100.00
48404;BME280;34202;52.536;6.042;2023-12-29T05:01:26;100520.54;;;9.07;100.00
48404;BME280;34202;52.536;6.042;2023-12-29T05:06:26;100528.00;;;9.06;100.00
48404;BME280;34202;52.536;6.042;2023-12-29T05:11:26;100531.80;;;9.04;100.00
48404;BME280;34202;52.536;6.042;2023-12-29T05:16:27;100533.69;;;9.03;100.00
48404;BME280;34202;52.536;6.042;2023-12-29T05:21:28;100527.80;;;9.03;100.00
48404;BME280;34202;52.536;6.042;2023-12-29T05:26:28;100524.32;;;9.02;100.00
48404;BME280;34202;52.536;6.042;2023-12-29T05:31:28;100526.75;;;9.02;100.00
48404;BME280;34202;52.536;6.042;2023-12-29T05:36:29;100529.37;;;9.03;100.00
48404;BME280;34202;52.536;6.042;2023-12-29T05:41:29;100536.66;;;9.03;100.00
48404;BME280;34202;52.536;6.042;2023-12-29T05:46:30;100547.23;;;9.02;100.00
48404;BME280;34202;52.536;6.042;2023-12-29T05:51:30;100539.95;;;9.03;100.00
48404;BME280;34202;52.536;6.042;2023-12-29T05:56:30;100523.98;;;9.04;100.00
48404;BME280;34202;52.536;6.042;2023-12-29T06:01:31;100518.95;;;9.04;100.00
48404;BME280;34202;52.536;6.042;2023-12-29T06:06:31;100532.17;;;9.05;100.00
48404;BME280;34202;52.536;6.042;2023-12-29T06:11:32;100540.66;;;9.06;100.00
48404;BME280;34202;52.536;6.042;2023-12-29T06:16:32;100538.95;;;9.07;100.00
48404;BME280;34202;52.536;6.042;2023-12-29T06:21:32;100541.02;;;9.08;100.00
48404;BME280;34202;52.536;6.042;2023-12-29T06:26:33;100527.33;;;9.09;100.00
48404;BME280;34202;52.536;6.042;2023-12-29T06:31:33;100518.48;;;9.11;100.00
48404;BME280;34202;52.536;6.042;2023-12-29T06:36:33;100517.80;;;9.14;100.00
48404;BME280;34202;52.536;6.042;2023-12-29T06:41:34;100515.23;;;9.15;100.00
48404;BME280;34202;52.536;6.042;2023-12-29T06:46:37;100521.65;;;9.17;100.00
48404;BME280;34202;52.536;6.042;2023-12-29T06:51:37;100503.98;;;9.20;100.00
48404;BME280;34202;52.536;6.042;2023-12-29T06:56:40;100496.86;;;9.22;100.00
48404;BME280;34202;52.536;6.042;2023-12-29T07:01:41;100503.65;;;9.25;100.00
48404;BME280;34202;52.536;6.042;2023-12-29T07:06:41;100508.70;;;9.26;100.00
48404;BME280;34202;52.536;6.042;2023-12-29T07:11:47;100507.67;;;9.28;100.00
48404;BME280;34202;52.536;6.042;2023-12-29T07:16:48;100503.34;;;9.30;100.00
48404;BME280;34202;52.536;6.042;2023-12-29T07:21:49;100504.40;;;9.33;100.00
48404;BME280;34202;52.536;6.042;2023-12-29T07:26:49;100516.23;;;9.36;100.00
48404;BME280;34202;52.536;6.042;2023-12-29T07:31:49;100521.47;;;9.39;100.00
48404;BME280;34202;52.536;6.042;2023-12-29T07:36:50;100522.16;;;9.41;100.00
48404;BME280;34202;52.536;6.042;2023-12-29T07:41:50;100521.84;;;9.43;100.00
48404;BME280;34202;52.536;6.042;2023-12-29T07:46:51;100516.81;;;9.45;100.00
48404;BME280;34202;52.536;6.042;2023-12-29T07:51:51;100522.73;;;9.47;100.00
48404;BME280;34202;52.536;6.042;2023-12-29T07:56:52;100520.12;;;9.47;100.00
48404;BME280;34202;52.536;6.042;2023-12-29T08:01:52;100520.64;;;9.47;100.00
48404;BME280;34202;52.536;6.042;2023-12-29T08:06:53;100518.21;;;9.48;100.00
48404;BME280;34202;52.536;6.042;2023-12-29T08:11:53;100514.41;;;9.50;100.00
48404;BME280;34202;52.536;6.042;2023-12-29T08:16:53;100520.13;;;9.51;100.00
48404;BME280;34202;52.536;6.042;2023-12-29T08:21:54;100526.05;;;9.52;100.00
48404;BME280;34202;52.536;6.042;2023-12-29T08:26:54;100531.61;;;9.52;100.00
48404;BME280;34202;52.536;6.042;2023-12-29T08:31:54;100541.54;;;9.54;100.00
48404;BME280;34202;52.536;6.042;2023-12-29T08:36:55;100539.80;;;9.53;100.00
48404;BME280;34202;52.536;6.042;2023-12-29T08:41:56;100534.41;;;9.53;100.00
48404;BME280;34202;52.536;6.042;2023-12-29T08:46:57;100531.81;;;9.56;100.00
48404;BME280;34202;52.536;6.042;2023-12-29T08:51:57;100535.63;;;9.56;100.00
48404;BME280;34202;52.536;6.042;2023-12-29T08:56:58;100531.29;;;9.56;100.00
48404;BME280;34202;52.536;6.042;2023-12-29T09:01:58;100528.34;;;9.57;100.00
48404;BME280;34202;52.536;6.042;2023-12-29T09:07:00;100537.89;;;9.56;100.00
48404;BME280;34202;52.536;6.042;2023-12-29T09:12:00;100541.00;;;9.52;100.00
48404;BME280;34202;52.536;6.042;2023-12-29T09:17:02;100525.56;;;9.29;100.00
48404;BME280;34202;52.536;6.042;2023-12-29T09:22:02;100546.45;;;9.12;100.00
48404;BME280;34202;52.536;6.042;2023-12-29T09:27:03;100544.16;;;9.08;100.00
48404;BME280;34202;52.536;6.042;2023-12-29T09:32:04;100546.27;;;9.11;100.00
48404;BME280;34202;52.536;6.042;2023-12-29T09:37:04;100535.87;;;9.14;100.00
48404;BME280;34202;52.536;6.042;2023-12-29T09:42:05;100522.70;;;9.18;100.00
48404;BME280;34202;52.536;6.042;2023-12-29T09:47:07;100518.57;;;9.23;100.00
48404;BME280;34202;52.536;6.042;2023-12-29T09:52:12;100530.59;;;9.28;100.00
48404;BME280;34202;52.536;6.042;2023-12-29T09:57:13;100534.27;;;9.32;100.00
48404;BME280;34202;52.536;6.042;2023-12-29T10:02:15;100544.73;;;9.37;100.00
48404;BME280;34202;52.536;6.042;2023-12-29T10:07:24;100538.67;;;9.41;100.00
48404;BME280;34202;52.536;6.042;2023-12-29T10:12:27;100530.02;;;9.46;100.00
48404;BME280;34202;52.536;6.042;2023-12-29T10:17:43;100517.73;;;9.52;100.00
48404;BME280;34202;52.536;6.042;2023-12-29T10:22:51;100537.02;;;9.56;100.00
48404;BME280;34202;52.536;6.042;2023-12-29T10:27:55;100555.98;;;9.57;100.00
48404;BME280;34202;52.536;6.042;2023-12-29T10:32:56;100561.00;;;9.56;100.00
48404;BME280;34202;52.536;6.042;2023-12-29T10:38:12;100569.52;;;9.55;100.00
48404;BME280;34202;52.536;6.042;2023-12-29T10:43:13;100570.05;;;9.58;100.00
48404;BME280;34202;52.536;6.042;2023-12-29T10:48:21;100569.38;;;9.61;100.00
48404;BME280;34202;52.536;6.042;2023-12-29T10:53:21;100575.30;;;9.64;100.00
48404;BME280;34202;52.536;6.042;2023-12-29T10:58:22;100580.87;;;9.68;100.00
48404;BME280;34202;52.536;6.042;2023-12-29T11:03:23;100591.86;;;9.72;100.00
48404;BME280;34202;52.536;6.042;2023-12-29T11:08:24;100594.84;;;9.75;100.00
48404;BME280;34202;52.536;6.042;2023-12-29T11:13:24;100592.59;;;9.77;100.00
48404;BME280;34202;52.536;6.042;2023-12-29T11:18:26;100592.61;;;9.80;100.00
48404;BME280;34202;52.536;6.042;2023-12-29T11:23:27;100591.55;;;9.80;100.00
48404;BME280;34202;52.536;6.042;2023-12-29T11:28:27;100594.17;;;9.82;100.00
48404;BME280;34202;52.536;6.042;2023-12-29T11:33:35;100598.19;;;9.83;100.00
48404;BME280;34202;52.536;6.042;2023-12-29T11:43:41;100598.56;;;9.91;100.00
48404;BME280;34202;52.536;6.042;2023-12-29T11:53:55;100592.52;;;9.96;100.00
48404;BME280;34202;52.536;6.042;2023-12-29T11:58:56;100594.25;;;9.98;100.00
48404;BME280;34202;52.536;6.042;2023-12-29T12:03:56;100598.96;;;10.00;100.00
48404;BME280;34202;52.536;6.042;2023-12-29T12:09:24;100600.89;;;10.02;100.00
48404;BME280;34202;52.536;6.042;2023-12-29T12:19:43;100600.39;;;10.05;100.00
48404;BME280;34202;52.536;6.042;2023-12-29T12:24:43;100602.84;;;10.07;100.00
48404;BME280;34202;52.536;6.042;2023-12-29T12:29:44;100603.00;;;10.08;100.00
48404;BME280;34202;52.536;6.042;2023-12-29T12:34:45;100607.71;;;10.08;100.00
48404;BME280;34202;52.536;6.042;2023-12-29T12:39:45;100613.11;;;10.09;100.00
48404;BME280;34202;52.536;6.042;2023-12-29T12:50:08;100607.86;;;10.05;100.00
48404;BME280;34202;52.536;6.042;2023-12-29T12:55:10;100606.97;;;10.02;100.00
48404;BME280;34202;52.536;6.042;2023-12-29T13:00:12;100606.45;;;10.01;100.00
48404;BME280;34202;52.536;6.042;2023-12-29T13:05:16;100606.63;;;10.02;100.00
48404;BME280;34202;52.536;6.042;2023-12-29T13:10:17;100604.89;;;10.02;100.00
48404;BME280;34202;52.536;6.042;2023-12-29T13:15:17;100605.76;;;10.02;100.00
48404;BME280;34202;52.536;6.042;2023-12-29T13:20:18;100604.39;;;10.05;100.00
48404;BME280;34202;52.536;6.042;2023-12-29T13:25:24;100612.92;;;10.08;100.00
48404;BME280;34202;52.536;6.042;2023-12-29T13:30:25;100611.89;;;10.10;100.00
48404;BME280;34202;52.536;6.042;2023-12-29T13:35:38;100609.62;;;10.09;100.00
48404;BME280;34202;52.536;6.042;2023-12-29T13:40:55;100617.79;;;10.06;100.00
48404;BME280;34202;52.536;6.042;2023-12-29T13:45:56;100625.07;;;10.03;100.00
48404;BME280;34202;52.536;6.042;2023-12-29T13:50:56;100616.54;;;10.01;100.00
48404;BME280;34202;52.536;6.042;2023-12-29T13:56:06;100610.45;;;9.99;100.00
48404;BME280;34202;52.536;6.042;2023-12-29T14:01:08;100614.95;;;9.98;100.00
48404;BME280;34202;52.536;6.042;2023-12-29T14:06:12;100607.48;;;9.99;100.00
48404;BME280;34202;52.536;6.042;2023-12-29T14:11:19;100603.30;;;9.99;100.00
48404;BME280;34202;52.536;6.042;2023-12-29T14:16:19;100604.86;;;9.98;100.00
48404;BME280;34202;52.536;6.042;2023-12-29T14:21:30;100608.34;;;9.97;100.00
48404;BME280;34202;52.536;6.042;2023-12-29T14:26:33;100609.73;;;9.95;100.00
48404;BME280;34202;52.536;6.042;2023-12-29T14:31:44;100611.62;;;9.93;100.00
48404;BME280;34202;52.536;6.042;2023-12-29T14:36:45;100616.30;;;9.90;100.00
48404;BME280;34202;52.536;6.042;2023-12-29T14:41:46;100618.72;;;9.87;100.00
48404;BME280;34202;52.536;6.042;2023-12-29T14:46:46;100621.65;;;9.84;100.00
48404;BME280;34202;52.536;6.042;2023-12-29T14:51:47;100621.13;;;9.82;100.00
48404;BME280;34202;52.536;6.042;2023-12-29T14:56:47;100625.80;;;9.80;100.00
48404;BME280;34202;52.536;6.042;2023-12-29T15:01:47;100628.05;;;9.78;100.00
48404;BME280;34202;52.536;6.042;2023-12-29T15:06:48;100610.82;;;9.75;100.00
48404;BME280;34202;52.536;6.042;2023-12-29T15:11:49;100606.64;;;9.74;100.00
48404;BME280;34202;52.536;6.042;2023-12-29T15:16:52;100598.80;;;9.69;100.00
48404;BME280;34202;52.536;6.042;2023-12-29T15:21:53;100602.05;;;9.64;100.00
48404;BME280;34202;52.536;6.042;2023-12-29T15:26:54;100601.34;;;9.61;100.00
48404;BME280;34202;52.536;6.042;2023-12-29T15:31:54;100595.05;;;9.56;100.00
48404;BME280;34202;52.536;6.042;2023-12-29T15:36:54;100586.15;;;9.50;100.00
48404;BME280;34202;52.536;6.042;2023-12-29T15:41:55;100576.36;;;9.42;100.00
48404;BME280;34202;52.536;6.042;2023-12-29T15:46:55;100575.76;;;9.31;100.00
48404;BME280;34202;52.536;6.042;2023-12-29T15:51:57;100564.92;;;9.21;100.00
48404;BME280;34202;52.536;6.042;2023-12-29T15:56:58;100558.08;;;9.12;100.00
48404;BME280;34202;52.536;6.042;2023-12-29T16:01:59;100545.52;;;9.03;100.00
48404;BME280;34202;52.536;6.042;2023-12-29T16:06:59;100540.77;;;8.97;100.00
48404;BME280;34202;52.536;6.042;2023-12-29T16:11:59;100550.28;;;8.93;100.00
48404;BME280;34202;52.536;6.042;2023-12-29T16:17:00;100539.29;;;8.87;100.00
48404;BME280;34202;52.536;6.042;2023-12-29T16:22:02;100544.64;;;8.82;100.00
48404;BME280;34202;52.536;6.042;2023-12-29T16:27:02;100537.83;;;8.78;100.00
48404;BME280;34202;52.536;6.042;2023-12-29T16:32:03;100559.98;;;8.73;100.00
48404;BME280;34202;52.536;6.042;2023-12-29T16:37:03;100560.64;;;8.68;100.00
48404;BME280;34202;52.536;6.042;2023-12-29T16:42:04;100568.92;;;8.65;100.00
48404;BME280;34202;52.536;6.042;2023-12-29T16:47:04;100572.71;;;8.61;100.00
48404;BME280;34202;52.536;6.042;2023-12-29T16:52:05;100573.52;;;8.56;100.00
48404;BME280;34202;52.536;6.042;2023-12-29T16:57:06;100590.95;;;8.49;100.00
48404;BME280;34202;52.536;6.042;2023-12-29T17:02:07;100614.60;;;8.39;100.00
48404;BME280;34202;52.536;6.042;2023-12-29T17:07:07;100601.06;;;8.26;100.00
48404;BME280;34202;52.536;6.042;2023-12-29T17:12:09;100601.78;;;8.15;100.00
48404;BME280;34202;52.536;6.042;2023-12-29T17:17:10;100598.86;;;8.02;100.00
48404;BME280;34202;52.536;6.042;2023-12-29T17:22:11;100608.55;;;7.89;100.00
48404;BME280;34202;52.536;6.042;2023-12-29T17:27:11;100622.49;;;7.82;100.00
48404;BME280;34202;52.536;6.042;2023-12-29T17:32:12;100583.95;;;7.77;100.00
48404;BME280;34202;52.536;6.042;2023-12-29T17:37:12;100620.29;;;7.73;100.00
48404;BME280;34202;52.536;6.042;2023-12-29T17:42:13;100626.47;;;7.69;100.00
48404;BME280;34202;52.536;6.042;2023-12-29T17:47:13;100608.92;;;7.67;100.00
48404;BME280;34202;52.536;6.042;2023-12-29T17:52:13;100609.92;;;7.63;100.00
48404;BME280;34202;52.536;6.042;2023-12-29T17:57:14;100623.02;;;7.59;100.00
48404;BME280;34202;52.536;6.042;2023-12-29T18:02:14;100623.66;;;7.56;100.00
48404;BME280;34202;52.536;6.042;2023-12-29T18:07:15;100620.27;;;7.50;100.00
48404;BME280;34202;52.536;6.042;2023-12-29T18:12:15;100621.06;;;7.45;100.00
48404;BME280;34202;52.536;6.042;2023-12-29T18:17:16;100626.71;;;7.42;100.00
48404;BME280;34202;52.536;6.042;2023-12-29T18:22:16;100629.09;;;7.38;100.00
48404;BME280;34202;52.536;6.042;2023-12-29T18:27:17;100626.09;;;7.35;100.00
48404;BME280;34202;52.536;6.042;2023-12-29T18:32:17;100638.15;;;7.31;100.00
48404;BME280;34202;52.536;6.042;2023-12-29T18:37:18;100632.58;;;7.30;100.00
48404;BME280;34202;52.536;6.042;2023-12-29T18:42:19;100645.39;;;7.29;100.00
48404;BME280;34202;52.536;6.042;2023-12-29T18:47:20;100654.16;;;7.26;100.00
48404;BME280;34202;52.536;6.042;2023-12-29T18:52:20;100661.91;;;7.24;100.00
48404;BME280;34202;52.536;6.042;2023-12-29T18:57:21;100662.55;;;7.21;100.00
48404;BME280;34202;52.536;6.042;2023-12-29T19:02:21;100663.23;;;7.20;100.00
48404;BME280;34202;52.536;6.042;2023-12-29T19:07:21;100666.27;;;7.16;100.00
48404;BME280;34202;52.536;6.042;2023-12-29T19:12:22;100668.96;;;7.11;100.00
48404;BME280;34202;52.536;6.042;2023-12-29T19:17:23;100672.86;;;7.07;100.00
48404;BME280;34202;52.536;6.042;2023-12-29T19:22:24;100667.45;;;7.03;100.00
48404;BME280;34202;52.536;6.042;2023-12-29T19:27:25;100667.20;;;7.01;100.00
48404;BME280;34202;52.536;6.042;2023-12-29T19:32:25;100665.94;;;6.97;100.00
48404;BME280;34202;52.536;6.042;2023-12-29T19:37:25;100668.79;;;6.93;100.00
48404;BME280;34202;52.536;6.042;2023-12-29T19:42:26;100672.02;;;6.90;100.00
48404;BME280;34202;52.536;6.042;2023-12-29T19:47:27;100676.31;;;6.88;100.00
48404;BME280;34202;52.536;6.042;2023-12-29T19:52:27;100679.20;;;6.85;100.00
48404;BME280;34202;52.536;6.042;2023-12-29T19:57:28;100676.34;;;6.80;100.00
48404;BME280;34202;52.536;6.042;2023-12-29T20:02:28;100676.95;;;6.76;100.00
48404;BME280;34202;52.536;6.042;2023-12-29T20:07:28;100675.69;;;6.73;100.00
48404;BME280;34202;52.536;6.042;2023-12-29T20:12:29;100668.02;;;6.70;100.00
48404;BME280;34202;52.536;6.042;2023-12-29T20:17:29;100666.61;;;6.69;100.00
48404;BME280;34202;52.536;6.042;2023-12-29T20:22:30;100662.58;;;6.66;100.00
48404;BME280;34202;52.536;6.042;2023-12-29T20:27:31;100656.16;;;6.65;100.00
48404;BME280;34202;52.536;6.042;2023-12-29T20:32:32;100654.77;;;6.65;100.00
48404;BME280;34202;52.536;6.042;2023-12-29T20:37:32;100647.66;;;6.64;100.00
48404;BME280;34202;52.536;6.042;2023-12-29T20:42:32;100643.31;;;6.62;100.00
48404;BME280;34202;52.536;6.042;2023-12-29T20:47:33;100640.48;;;6.59;100.00
48404;BME280;34202;52.536;6.042;2023-12-29T20:52:33;100649.09;;;6.57;100.00
48404;BME280;34202;52.536;6.042;2023-12-29T20:57:34;100654.94;;;6.56;100.00
48404;BME280;34202;52.536;6.042;2023-12-29T21:02:35;100666.51;;;6.55;100.00
48404;BME280;34202;52.536;6.042;2023-12-29T21:07:36;100657.52;;;6.55;100.00
48404;BME280;34202;52.536;6.042;2023-12-29T21:12:36;100655.83;;;6.56;100.00
48404;BME280;34202;52.536;6.042;2023-12-29T21:17:37;100655.48;;;6.57;100.00
48404;BME280;34202;52.536;6.042;2023-12-29T21:22:37;100663.17;;;6.61;100.00
48404;BME280;34202;52.536;6.042;2023-12-29T21:27:37;100651.46;;;6.64;100.00
48404;BME280;34202;52.536;6.042;2023-12-29T21:32:38;100660.87;;;6.67;100.00
48404;BME280;34202;52.536;6.042;2023-12-29T21:37:40;100671.66;;;6.70;100.00
48404;BME280;34202;52.536;6.042;2023-12-29T21:42:41;100679.51;;;6.74;100.00
48404;BME280;34202;52.536;6.042;2023-12-29T21:47:41;100683.55;;;6.77;100.00
48404;BME280;34202;52.536;6.042;2023-12-29T21:52:43;100678.61;;;6.81;100.00
48404;BME280;34202;52.536;6.042;2023-12-29T21:57:44;100676.40;;;6.83;100.00
48404;BME280;34202;52.536;6.042;2023-12-29T22:02:44;100674.05;;;6.86;100.00
48404;BME280;34202;52.536;6.042;2023-12-29T22:07:45;100679.94;;;6.88;100.00
48404;BME280;34202;52.536;6.042;2023-12-29T22:12:45;100684.89;;;6.93;100.00
48404;BME280;34202;52.536;6.042;2023-12-29T22:17:45;100682.72;;;6.97;100.00
48404;BME280;34202;52.536;6.042;2023-12-29T22:22:46;100686.58;;;7.00;100.00
48404;BME280;34202;52.536;6.042;2023-12-29T22:27:48;100698.23;;;7.03;100.00
48404;BME280;34202;52.536;6.042;2023-12-29T22:32:48;100710.41;;;7.07;100.00
48404;BME280;34202;52.536;6.042;2023-12-29T22:37:49;100714.79;;;7.09;100.00
48404;BME280;34202;52.536;6.042;2023-12-29T22:42:50;100723.84;;;7.12;100.00
48404;BME280;34202;52.536;6.042;2023-12-29T22:47:50;100725.79;;;7.15;100.00
48404;BME280;34202;52.536;6.042;2023-12-29T22:52:50;100724.45;;;7.16;100.00
48404;BME280;34202;52.536;6.042;2023-12-29T22:57:51;100730.88;;;7.18;100.00
48404;BME280;34202;52.536;6.042;2023-12-29T23:02:51;100738.85;;;7.18;100.00
48404;BME280;34202;52.536;6.042;2023-12-29T23:07:51;100753.52;;;7.17;100.00
48404;BME280;34202;52.536;6.042;2023-12-29T23:12:55;100759.68;;;7.13;100.00
48404;BME280;34202;52.536;6.042;2023-12-29T23:17:56;100769.99;;;7.09;100.00
48404;BME280;34202;52.536;6.042;2023-12-29T23:22:56;100779.27;;;7.06;100.00
48404;BME280;34202;52.536;6.042;2023-12-29T23:27:57;100778.84;;;7.02;100.00
48404;BME280;34202;52.536;6.042;2023-12-29T23:32:57;100781.02;;;6.98;100.00
48404;BME280;34202;52.536;6.042;2023-12-29T23:37:58;100789.58;;;6.93;100.00
48404;BME280;34202;52.536;6.042;2023-12-29T23:42:58;100795.90;;;6.89;100.00
48404;BME280;34202;52.536;6.042;2023-12-29T23:47:58;100809.13;;;6.85;100.00
48404;BME280;34202;52.536;6.042;2023-12-29T23:52:59;100817.19;;;6.82;100.00
48404;BME280;34202;52.536;6.042;2023-12-29T23:58:00;100817.63;;;6.78;100.00
